Time;durP1;ratioP1;P1;durP2;ratioP2;P2;SDS_P1;SDS_P2;PMS_P1;PMS_P2;Temp;Humidity;BMP_temperature;BMP_pressure;BME280_temperature;BME280_humidity;BME280_pressure;Samples;Min_cycle;Max_cycle;Signal;HPM_P1;HPM_P2
2023/08/09 00:00:57;;;;;;;1.20;1.10;;;14.80;99.90;;;;;;5068868;28;20388;-73
2023/08/09 00:03:23;;;;;;;6.28;1.42;;;14.80;99.90;;;;;;5076514;28;20043;-72
2023/08/09 00:05:49;;;;;;;1.15;1.00;;;14.80;99.90;;;;;;5083129;28;20039;-72
2023/08/09 00:08:14;;;;;;;4.45;1.42;;;14.80;99.90;;;;;;5077903;28;20123;-71
2023/08/09 00:10:40;;;;;;;2.38;1.40;;;14.80;99.90;;;;;;5079199;28;20423;-72
2023/08/09 00:13:07;;;;;;;1.73;1.13;;;14.80;99.90;;;;;;5072556;28;20425;-73
2023/08/09 00:15:33;;;;;;;2.47;1.10;;;14.80;99.90;;;;;;5073414;28;20024;-72
2023/08/09 00:17:58;;;;;;;2.65;1.50;;;14.80;99.90;;;;;;5076231;28;20028;-72
2023/08/09 00:20:24;;;;;;;1.42;1.33;;;14.80;99.90;;;;;;5077849;28;20150;-73
2023/08/09 00:22:50;;;;;;;4.22;1.50;;;14.80;99.90;;;;;;5082895;28;20034;-74
2023/08/09 00:25:17;;;;;;;6.07;1.50;;;14.80;99.90;;;;;;5058280;28;20919;-73
2023/08/09 00:27:43;;;;;;;2.58;1.30;;;14.80;99.90;;;;;;5059311;28;20027;-73
2023/08/09 00:30:12;;;;;;;3.97;1.63;;;14.70;99.90;;;;;;5076799;28;20035;-74
2023/08/09 00:32:39;;;;;;;4.05;1.55;;;14.70;99.90;;;;;;5075722;27;20027;-71
2023/08/09 00:35:05;;;;;;;3.33;1.60;;;14.70;99.90;;;;;;5072879;28;20036;-72
2023/08/09 00:37:31;;;;;;;3.00;1.40;;;14.60;99.90;;;;;;5071905;28;20051;-72
2023/08/09 00:39:57;;;;;;;2.85;1.70;;;14.50;99.90;;;;;;5078227;28;20024;-72
2023/08/09 00:42:25;;;;;;;3.40;1.67;;;14.50;99.90;;;;;;5073790;28;20113;-71
2023/08/09 00:44:52;;;;;;;2.03;1.52;;;14.50;99.90;;;;;;5079568;28;21171;-72
2023/08/09 00:47:20;;;;;;;2.15;1.50;;;14.50;99.90;;;;;;5073056;28;20126;-71
2023/08/09 00:49:46;;;;;;;2.83;1.67;;;14.50;99.90;;;;;;5082165;28;20028;-72
2023/08/09 00:52:11;;;;;;;3.75;1.63;;;14.50;99.90;;;;;;5083627;28;20119;-74
2023/08/09 00:54:39;;;;;;;5.85;1.52;;;14.50;99.90;;;;;;5076909;28;21018;-73
2023/08/09 00:57:08;;;;;;;2.95;1.45;;;14.50;99.90;;;;;;5076062;28;20495;-73
2023/08/09 00:59:34;;;;;;;2.45;1.83;;;14.40;99.90;;;;;;5079306;28;20040;-73
2023/08/09 01:02:00;;;;;;;3.65;1.67;;;14.40;99.90;;;;;;5069294;28;20985;-73
2023/08/09 01:04:27;;;;;;;4.57;1.95;;;14.40;99.90;;;;;;5073118;28;20040;-73
2023/08/09 01:07:02;;;;;;;1.90;1.70;;;14.30;99.90;;;;;;5080091;28;20096;-73
2023/08/09 01:10:00;;;;;;;2.67;1.65;;;14.30;99.90;;;;;;5077893;28;20016;-73
2023/08/09 01:12:33;;;;;;;4.10;1.48;;;14.30;99.90;;;;;;5064934;27;20056;-73
2023/08/09 01:15:02;;;;;;;1.73;1.52;;;14.20;99.90;;;;;;5074118;28;20035;-73
2023/08/09 01:17:29;;;;;;;2.53;1.30;;;14.20;99.90;;;;;;5068924;28;20028;-73
2023/08/09 01:19:57;;;;;;;4.28;1.90;;;14.20;99.90;;;;;;5073857;28;20028;-72
2023/08/09 01:22:29;;;;;;;2.03;1.40;;;14.20;99.90;;;;;;5071565;28;20107;-74
2023/08/09 01:24:58;;;;;;;3.13;1.60;;;14.20;99.90;;;;;;5048546;28;20152;-74
2023/08/09 01:27:23;;;;;;;2.22;1.55;;;14.20;99.90;;;;;;5062040;28;20039;-71
2023/08/09 01:29:50;;;;;;;2.60;1.70;;;14.10;99.90;;;;;;5071669;28;20110;-74
2023/08/09 01:32:15;;;;;;;1.85;1.58;;;14.10;99.90;;;;;;5068757;28;20023;-73
2023/08/09 01:34:41;;;;;;;3.50;1.58;;;14.10;99.90;;;;;;5065438;28;20033;-73
2023/08/09 01:37:12;;;;;;;6.55;2.13;;;14.10;99.90;;;;;;5075049;28;21952;-73
2023/08/09 01:39:40;;;;;;;8.27;1.80;;;14.10;99.90;;;;;;5067884;28;20123;-73
2023/08/09 01:42:06;;;;;;;2.67;1.60;;;14.10;99.90;;;;;;5078541;28;20063;-73
2023/08/09 01:44:33;;;;;;;2.55;1.67;;;14.00;99.90;;;;;;5074503;28;20101;-73
2023/08/09 01:46:59;;;;;;;4.30;1.75;;;14.10;99.90;;;;;;5076244;28;20036;-73
2023/08/09 01:49:25;;;;;;;3.13;1.75;;;14.10;99.90;;;;;;5080529;28;20036;-73
2023/08/09 01:51:53;;;;;;;2.70;1.88;;;14.10;99.90;;;;;;5078648;28;20393;-74
2023/08/09 01:54:19;;;;;;;7.50;2.10;;;14.00;99.90;;;;;;5061938;28;20036;-74
2023/08/09 01:56:45;;;;;;;5.40;2.40;;;14.00;99.90;;;;;;5065873;28;20035;-74
2023/08/09 01:59:11;;;;;;;3.00;1.77;;;13.90;99.90;;;;;;5076227;28;20034;-73
2023/08/09 02:01:36;;;;;;;1.80;1.38;;;13.80;99.90;;;;;;5081283;28;20023;-74
2023/08/09 02:04:03;;;;;;;2.00;1.73;;;13.80;99.90;;;;;;5080095;28;20065;-73
2023/08/09 02:06:32;;;;;;;3.40;1.60;;;13.80;99.90;;;;;;5056427;28;20584;-73
2023/08/09 02:08:58;;;;;;;2.10;1.40;;;13.70;99.90;;;;;;5081894;28;20193;-73
2023/08/09 02:11:24;;;;;;;2.47;1.80;;;13.70;99.90;;;;;;5083128;28;20035;-73
2023/08/09 02:13:49;;;;;;;2.22;1.60;;;13.60;99.90;;;;;;5077202;28;20028;-73
2023/08/09 02:16:15;;;;;;;2.92;1.63;;;13.60;99.90;;;;;;5078665;28;20050;-74
2023/08/09 02:18:41;;;;;;;3.92;1.90;;;13.60;99.90;;;;;;5072869;28;20531;-74
2023/08/09 02:21:07;;;;;;;2.47;1.60;;;13.60;99.90;;;;;;5074788;28;20500;-74
2023/08/09 02:23:33;;;;;;;2.00;1.65;;;13.60;99.90;;;;;;5071785;28;20066;-74
2023/08/09 02:25:59;;;;;;;3.63;1.90;;;13.50;99.90;;;;;;5078392;28;20559;-74
2023/08/09 02:28:24;;;;;;;2.38;1.67;;;13.40;99.90;;;;;;5080687;28;20031;-74
2023/08/09 02:30:50;;;;;;;6.88;1.55;;;13.40;99.90;;;;;;5085484;28;20077;-73
2023/08/09 02:33:16;;;;;;;1.60;1.30;;;13.30;99.90;;;;;;5083992;28;20036;-72
2023/08/09 02:35:59;;;;;;;1.75;1.63;;;13.30;99.90;;;;;;5082430;28;20050;-72
2023/08/09 02:38:26;;;;;;;2.05;1.60;;;13.20;99.90;;;;;;5060393;28;20061;-71
2023/08/09 02:40:52;;;;;;;1.58;1.48;;;13.20;99.90;;;;;;5081460;28;20044;-72
2023/08/09 02:43:26;;;;;;;1.90;1.40;;;13.20;99.90;;;;;;5080627;28;20414;-71
2023/08/09 02:45:55;;;;;;;2.30;1.60;;;13.20;99.90;;;;;;5075897;28;20032;-72
2023/08/09 02:48:21;;;;;;;1.80;1.67;;;13.10;99.90;;;;;;5077981;28;20945;-72
2023/08/09 02:50:47;;;;;;;1.67;1.50;;;13.20;99.90;;;;;;5079540;28;20064;-71
2023/08/09 02:53:16;;;;;;;4.38;1.40;;;13.10;99.90;;;;;;5063131;28;20515;-72
2023/08/09 02:55:43;;;;;;;2.72;1.60;;;13.10;99.90;;;;;;5081997;27;20035;-73
2023/08/09 02:58:09;;;;;;;8.77;1.50;;;13.10;99.90;;;;;;5083591;28;20043;-73
2023/08/09 03:00:36;;;;;;;1.85;1.40;;;13.10;99.90;;;;;;5086461;28;20046;-72
2023/08/09 03:03:04;;;;;;;2.03;1.50;;;13.00;99.90;;;;;;5083650;28;20059;-73
2023/08/09 03:05:30;;;;;;;4.28;1.48;;;13.00;99.90;;;;;;5072844;28;20040;-72
2023/08/09 03:07:56;;;;;;;2.70;1.25;;;12.90;99.90;;;;;;5085840;28;20436;-72
2023/08/09 03:10:22;;;;;;;4.05;1.45;;;12.90;99.90;;;;;;5080956;28;20024;-72
2023/08/09 03:12:48;;;;;;;4.03;1.90;;;12.90;99.90;;;;;;5058240;28;20028;-72
2023/08/09 03:15:15;;;;;;;2.20;1.85;;;12.80;99.90;;;;;;5068077;28;20040;-72
2023/08/09 03:17:41;;;;;;;3.63;1.88;;;12.80;99.90;;;;;;5060466;28;20143;-72
2023/08/09 03:20:13;;;;;;;5.55;1.98;;;12.90;99.90;;;;;;5065271;28;20116;-72
2023/08/09 03:22:42;;;;;;;;;;;12.90;99.90;;;;;;5072885;28;20093;-73
2023/08/09 03:25:09;;;;;;;2.35;1.58;;;13.00;99.90;;;;;;5068697;28;20213;-72
2023/08/09 03:27:35;;;;;;;2.90;1.83;;;13.00;99.90;;;;;;5076391;27;20411;-72
2023/08/09 03:30:01;;;;;;;3.10;1.77;;;12.90;99.90;;;;;;5081456;28;20031;-72
2023/08/09 03:32:26;;;;;;;2.53;1.63;;;12.90;99.90;;;;;;5075168;28;20089;-72
2023/08/09 03:34:52;;;;;;;3.60;2.33;;;12.90;99.90;;;;;;5079333;28;23918;-72
2023/08/09 03:37:18;;;;;;;3.72;1.70;;;13.00;99.90;;;;;;5062552;28;20087;-71
2023/08/09 03:39:43;;;;;;;4.53;2.22;;;13.00;99.90;;;;;;5082692;28;20484;-72
2023/08/09 03:42:09;;;;;;;3.60;2.10;;;13.00;99.90;;;;;;5076535;28;20044;-71
2023/08/09 03:44:34;;;;;;;4.25;2.20;;;13.10;99.90;;;;;;5076709;28;20134;-72
2023/08/09 03:47:00;;;;;;;2.75;1.63;;;13.10;99.90;;;;;;5075509;28;20788;-72
2023/08/09 03:49:26;;;;;;;4.35;2.35;;;13.10;99.90;;;;;;5077719;28;20051;-72
2023/08/09 03:51:51;;;;;;;3.30;1.92;;;13.10;99.90;;;;;;5074710;28;20201;-72
2023/08/09 03:54:17;;;;;;;3.47;2.03;;;13.20;99.90;;;;;;5078646;28;20039;-72
2023/08/09 03:56:42;;;;;;;3.38;2.05;;;13.30;99.90;;;;;;5078046;28;20039;-72
2023/08/09 03:59:08;;;;;;;4.65;2.13;;;13.40;99.90;;;;;;5079033;28;20032;-72
2023/08/09 04:01:34;;;;;;;2.10;1.90;;;13.50;99.90;;;;;;5075298;28;20119;-72
2023/08/09 04:04:00;;;;;;;4.90;1.90;;;13.50;99.90;;;;;;5068588;28;21096;-71
2023/08/09 04:06:25;;;;;;;2.47;1.90;;;13.60;99.90;;;;;;5071332;28;20031;-71
2023/08/09 04:08:51;;;;;;;5.88;2.33;;;13.60;99.90;;;;;;5074116;28;20040;-72
2023/08/09 04:11:16;;;;;;;2.45;1.98;;;13.60;99.90;;;;;;5073442;28;20535;-72
2023/08/09 04:13:42;;;;;;;4.07;2.20;;;13.60;99.90;;;;;;5072192;28;20074;-72
2023/08/09 04:16:09;;;;;;;2.65;2.35;;;13.70;99.90;;;;;;5078818;28;20023;-73
2023/08/09 04:18:35;;;;;;;3.53;2.58;;;13.70;99.90;;;;;;5068877;28;20024;-73
2023/08/09 04:21:01;;;;;;;7.15;2.92;;;13.80;99.90;;;;;;5073542;28;20061;-71
2023/08/09 04:23:26;;;;;;;2.45;1.77;;;13.80;99.90;;;;;;5080973;28;20047;-71
2023/08/09 04:25:52;;;;;;;3.92;2.25;;;13.90;99.90;;;;;;5077389;28;20035;-71
2023/08/09 04:28:18;;;;;;;2.90;1.98;;;14.00;99.90;;;;;;5080011;28;20055;-71
2023/08/09 04:30:43;;;;;;;2.75;1.98;;;14.00;99.90;;;;;;5077573;28;20019;-71
2023/08/09 04:33:09;;;;;;;3.10;1.50;;;14.00;99.90;;;;;;5077654;28;20031;-71
2023/08/09 04:35:35;;;;;;;6.03;1.90;;;14.10;99.90;;;;;;5075811;28;20633;-71
2023/08/09 04:38:04;;;;;;;2.75;1.70;;;14.10;99.90;;;;;;5070516;28;20137;-71
2023/08/09 04:40:36;;;;;;;1.90;1.50;;;14.10;99.90;;;;;;5074108;28;20059;-71
2023/08/09 04:43:02;;;;;;;;;;;14.20;99.90;;;;;;5077168;28;21533;-71
2023/08/09 04:45:28;;;;;;;4.57;1.75;;;14.20;99.90;;;;;;5080444;28;19994;-71
2023/08/09 04:47:54;;;;;;;5.43;1.83;;;14.30;99.90;;;;;;5076650;28;20036;-74
2023/08/09 04:50:23;;;;;;;2.55;1.85;;;14.30;99.90;;;;;;5074283;28;20028;-73
2023/08/09 04:52:49;;;;;;;3.85;1.83;;;14.30;99.90;;;;;;5033517;28;20400;-73
2023/08/09 04:55:15;;;;;;;5.05;1.52;;;14.40;99.90;;;;;;5049618;28;20064;-71
2023/08/09 04:57:41;;;;;;;3.85;2.03;;;14.40;99.90;;;;;;5061627;28;20473;-72
2023/08/09 05:00:10;;;;;;;6.80;2.05;;;14.50;99.90;;;;;;5080330;28;20031;-71
2023/08/09 05:02:36;;;;;;;2.20;1.80;;;14.40;99.90;;;;;;5074893;28;20810;-72
2023/08/09 05:05:06;;;;;;;3.40;1.80;;;14.50;99.90;;;;;;5070997;28;20145;-72
2023/08/09 05:07:32;;;;;;;2.85;2.20;;;14.50;99.90;;;;;;5071169;28;20020;-72
2023/08/09 05:10:03;;;;;;;3.60;1.98;;;14.60;99.90;;;;;;5071973;28;21101;-72
2023/08/09 05:12:29;;;;;;;2.67;1.92;;;14.60;99.90;;;;;;5061765;28;20027;-72
2023/08/09 05:14:55;;;;;;;3.13;2.13;;;14.60;99.90;;;;;;5074279;28;20035;-72
2023/08/09 05:17:20;;;;;;;3.03;2.00;;;14.60;99.90;;;;;;5079390;28;20089;-72
2023/08/09 05:19:46;;;;;;;3.22;1.60;;;14.60;99.90;;;;;;5081680;28;20032;-72
2023/08/09 05:22:12;;;;;;;2.53;1.98;;;14.60;99.90;;;;;;5074575;28;20085;-72
2023/08/09 05:24:38;;;;;;;2.90;2.00;;;14.60;99.90;;;;;;5075947;28;20081;-72
2023/08/09 05:27:03;;;;;;;4.10;2.15;;;14.70;99.90;;;;;;5074120;28;20422;-73
2023/08/09 05:29:29;;;;;;;5.05;2.10;;;14.70;99.90;;;;;;5082676;28;20458;-73
2023/08/09 05:31:55;;;;;;;3.92;2.05;;;14.80;99.90;;;;;;5080247;28;20993;-72
2023/08/09 05:34:20;;;;;;;3.20;1.90;;;14.90;99.90;;;;;;5084582;28;20511;-73
2023/08/09 05:36:46;;;;;;;2.83;1.90;;;14.90;99.90;;;;;;5071861;28;20082;-73
2023/08/09 05:39:12;;;;;;;3.13;2.15;;;14.90;99.90;;;;;;5078430;28;20485;-73
2023/08/09 05:41:39;;;;;;;3.45;1.83;;;15.00;99.90;;;;;;5069975;28;20036;-73
2023/08/09 05:44:04;;;;;;;2.60;2.30;;;15.10;99.90;;;;;;5073762;28;20071;-72
2023/08/09 05:46:30;;;;;;;3.42;1.80;;;15.20;99.90;;;;;;5076121;28;20400;-73
2023/08/09 05:48:56;;;;;;;2.88;1.90;;;15.20;99.90;;;;;;5051624;28;20081;-73
2023/08/09 05:51:22;;;;;;;3.88;2.33;;;15.30;99.90;;;;;;5073082;28;20484;-73
2023/08/09 05:53:48;;;;;;;2.90;1.80;;;15.50;99.90;;;;;;5077676;28;20028;-73
2023/08/09 05:56:13;;;;;;;3.83;1.83;;;15.50;99.90;;;;;;5079248;28;20043;-73
2023/08/09 05:58:39;;;;;;;4.05;1.60;;;15.60;99.90;;;;;;5067153;28;20116;-73
2023/08/09 06:01:07;;;;;;;4.07;2.05;;;15.70;99.90;;;;;;5077050;28;20430;-73
2023/08/09 06:03:39;;;;;;;5.53;1.90;;;15.80;99.90;;;;;;5078838;28;20059;-74
2023/08/09 06:06:10;;;;;;;4.15;2.00;;;16.00;99.90;;;;;;5080661;28;20091;-74
2023/08/09 06:08:36;;;;;;;5.88;2.20;;;16.10;99.90;;;;;;5085488;28;20589;-73
2023/08/09 06:11:03;;;;;;;4.68;2.00;;;16.20;99.90;;;;;;5084135;28;20508;-73
2023/08/09 06:13:29;;;;;;;2.65;2.30;;;16.30;99.90;;;;;;5064504;28;20487;-73
2023/08/09 06:15:55;;;;;;;1.90;1.80;;;16.40;99.90;;;;;;5059755;28;20036;-71
2023/08/09 06:18:21;;;;;;;4.07;1.95;;;16.50;99.90;;;;;;5079426;28;20073;-71
2023/08/09 06:20:48;;;;;;;4.57;2.25;;;16.50;99.90;;;;;;5081191;28;20434;-71
2023/08/09 06:23:14;;;;;;;3.58;1.85;;;16.60;99.90;;;;;;5086933;28;20034;-71
2023/08/09 06:25:40;;;;;;;2.38;2.13;;;16.50;99.90;;;;;;5086095;28;20554;-71
2023/08/09 06:28:07;;;;;;;3.30;2.00;;;16.50;99.90;;;;;;5078625;28;20024;-72
2023/08/09 06:30:33;;;;;;;3.13;2.30;;;16.50;99.90;;;;;;5082045;28;20047;-72
2023/08/09 06:32:59;;;;;;;3.55;2.00;;;16.60;99.90;;;;;;5087356;28;20035;-72
2023/08/09 06:35:25;;;;;;;2.78;1.98;;;16.70;99.90;;;;;;5080102;28;20568;-71
2023/08/09 06:37:51;;;;;;;2.20;1.88;;;16.80;99.90;;;;;;5081979;28;20040;-72
2023/08/09 06:40:18;;;;;;;2.70;1.80;;;16.80;99.90;;;;;;5079702;28;20040;-72
2023/08/09 06:42:44;;;;;;;3.47;1.90;;;16.80;99.90;;;;;;5074070;28;20035;-72
2023/08/09 06:45:10;;;;;;;4.03;1.90;;;16.90;99.90;;;;;;5080729;28;20504;-71
2023/08/09 06:47:36;;;;;;;5.32;2.00;;;17.00;99.90;;;;;;5054606;28;20043;-72
2023/08/09 06:50:05;;;;;;;3.08;1.92;;;17.10;99.90;;;;;;5073024;28;20028;-72
2023/08/09 06:52:32;;;;;;;5.30;2.03;;;17.20;99.90;;;;;;5068648;28;20032;-72
2023/08/09 06:54:58;;;;;;;4.93;1.83;;;17.20;99.90;;;;;;5073257;28;20034;-71
2023/08/09 06:57:24;;;;;;;3.17;2.20;;;17.30;99.90;;;;;;5085461;28;20024;-72
2023/08/09 06:59:51;;;;;;;4.18;1.98;;;17.30;99.90;;;;;;5080721;28;20110;-71
2023/08/09 07:02:17;;;;;;;2.35;1.70;;;17.30;99.90;;;;;;5085369;28;20118;-72
2023/08/09 07:04:42;;;;;;;9.18;2.70;;;17.30;99.90;;;;;;5083394;28;20440;-71
2023/08/09 07:07:08;;;;;;;3.60;1.75;;;17.20;99.90;;;;;;5079285;28;20472;-70
2023/08/09 07:09:34;;;;;;;3.35;2.15;;;17.30;99.90;;;;;;5083512;28;20043;-70
2023/08/09 07:11:59;;;;;;;5.50;2.10;;;17.40;99.90;;;;;;5077233;28;20077;-72
2023/08/09 07:14:25;;;;;;;4.43;2.08;;;17.50;99.90;;;;;;5049784;28;20020;-71
2023/08/09 07:16:51;;;;;;;2.30;2.08;;;17.60;99.90;;;;;;5073990;28;20059;-71
2023/08/09 07:19:16;;;;;;;8.75;1.80;;;17.70;99.90;;;;;;5073545;28;20024;-72
2023/08/09 07:21:42;;;;;;;1.88;1.70;;;17.70;99.90;;;;;;5071603;28;20078;-72
2023/08/09 07:24:07;;;;;;;2.83;2.38;;;17.90;99.90;;;;;;5064515;28;20062;-71
2023/08/09 07:26:33;;;;;;;2.83;1.40;;;18.00;99.90;;;;;;5065889;28;20077;-73
2023/08/09 07:28:59;;;;;;;3.58;1.73;;;18.10;99.90;;;;;;5075275;28;20028;-71
2023/08/09 07:31:25;;;;;;;3.67;1.88;;;18.20;99.90;;;;;;5078900;28;20016;-70
2023/08/09 07:33:51;;;;;;;2.50;1.70;;;18.30;99.90;;;;;;5081287;28;20093;-70
2023/08/09 07:36:17;;;;;;;1.80;1.67;;;18.40;99.90;;;;;;5059434;28;20802;-70
2023/08/09 07:38:43;;;;;;;12.00;2.10;;;18.50;99.90;;;;;;5061118;28;20039;-72
2023/08/09 07:41:09;;;;;;;2.90;2.38;;;18.70;99.90;;;;;;5067937;28;20120;-71
2023/08/09 07:43:35;;;;;;;5.93;1.58;;;18.80;99.90;;;;;;5080447;28;20024;-71
2023/08/09 07:46:04;;;;;;;3.72;1.58;;;18.90;99.90;;;;;;5072844;28;20172;-71
2023/08/09 07:48:30;;;;;;;4.32;1.70;;;19.00;99.90;;;;;;5081161;28;20019;-69
2023/08/09 07:50:56;;;;;;;3.08;1.58;;;19.10;99.90;;;;;;5073513;28;20043;-73
2023/08/09 07:53:22;;;;;;;4.50;1.52;;;19.10;99.90;;;;;;5075435;28;20036;-72
2023/08/09 07:55:48;;;;;;;1.88;1.30;;;19.20;99.90;;;;;;5083165;28;20625;-73
2023/08/09 07:58:14;;;;;;;4.78;1.35;;;19.20;99.90;;;;;;5076114;28;20031;-73
2023/08/09 08:00:40;;;;;;;4.55;1.40;;;19.20;99.90;;;;;;5081734;28;20036;-69
2023/08/09 08:03:05;;;;;;;1.77;0.95;;;19.40;99.90;;;;;;5075905;28;20513;-70
2023/08/09 08:05:31;;;;;;;2.30;1.40;;;19.40;99.90;;;;;;5066385;28;20078;-68
2023/08/09 08:07:57;;;;;;;2.05;1.33;;;19.60;99.90;;;;;;5064386;28;20114;-67
2023/08/09 08:10:23;;;;;;;2.53;1.02;;;19.70;99.90;;;;;;5083604;28;20032;-67
2023/08/09 08:12:49;;;;;;;5.40;2.00;;;19.80;99.90;;;;;;5084169;28;20565;-69
2023/08/09 08:15:17;;;;;;;1.88;1.23;;;19.80;99.90;;;;;;5075038;28;20414;-70
2023/08/09 08:17:43;;;;;;;1.50;1.20;;;20.00;99.90;;;;;;5088212;28;20107;-70
2023/08/09 08:20:15;;;;;;;1.50;1.10;;;20.10;99.90;;;;;;5067023;28;20061;-71
2023/08/09 08:22:49;;;;;;;1.58;1.08;;;20.20;99.90;;;;;;5077044;28;20697;-73
2023/08/09 08:25:16;;;;;;;11.18;2.22;;;20.30;99.90;;;;;;5054969;28;20043;-76
2023/08/09 08:27:45;;;;;;;7.93;1.40;;;20.40;99.90;;;;;;5060839;28;20475;-79
2023/08/09 08:30:13;;;;;;;3.35;1.17;;;20.50;99.90;;;;;;5071095;28;20028;-78
2023/08/09 08:32:39;;;;;;;4.45;1.30;;;20.50;99.90;;;;;;5081334;28;20023;-76
2023/08/09 08:35:13;;;;;;;1.25;1.10;;;20.60;99.90;;;;;;5049061;28;21167;-78
2023/08/09 08:37:42;;;;;;;1.77;1.20;;;20.60;99.90;;;;;;5055189;28;20038;-75
2023/08/09 08:40:11;;;;;;;1.05;0.90;;;20.50;99.90;;;;;;5056715;28;20039;-77
2023/08/09 08:42:36;;;;;;;1.60;0.90;;;20.50;99.90;;;;;;5069358;28;20059;-73
2023/08/09 08:45:11;;;;;;;2.92;1.02;;;20.50;99.90;;;;;;5080264;28;20120;-73
2023/08/09 08:47:40;;;;;;;2.22;0.95;;;20.50;99.90;;;;;;5068657;28;20028;-72
2023/08/09 08:50:08;;;;;;;2.50;1.08;;;20.50;99.90;;;;;;5054560;28;20227;-73
2023/08/09 08:52:36;;;;;;;2.80;1.05;;;20.50;99.90;;;;;;5060657;28;20032;-73
2023/08/09 08:55:04;;;;;;;4.68;0.90;;;20.60;99.90;;;;;;5077104;28;20032;-73
2023/08/09 08:57:30;;;;;;;5.10;0.90;;;20.60;99.90;;;;;;5052108;28;20823;-73
2023/08/09 08:59:56;;;;;;;0.68;0.63;;;20.70;99.90;;;;;;5061583;28;20047;-75
2023/08/09 09:02:22;;;;;;;1.25;1.02;;;20.80;99.90;;;;;;5053716;28;20023;-74
2023/08/09 09:04:48;;;;;;;3.15;1.13;;;20.70;99.90;;;;;;5062702;28;20479;-68
2023/08/09 09:07:14;;;;;;;2.40;1.20;;;20.80;99.90;;;;;;5075802;28;20024;-67
2023/08/09 09:09:59;;;;;;;2.58;0.85;;;20.80;99.90;;;;;;5084179;28;20040;-68
2023/08/09 09:12:25;;;;;;;4.13;1.00;;;20.70;99.90;;;;;;5081068;28;20027;-68
2023/08/09 09:14:54;;;;;;;1.60;1.00;;;20.80;99.90;;;;;;5073388;28;20093;-67
2023/08/09 09:17:20;;;;;;;4.65;0.90;;;20.80;99.90;;;;;;5075158;28;20419;-69
2023/08/09 09:19:47;;;;;;;2.97;0.90;;;20.70;99.90;;;;;;5075492;28;20123;-69
2023/08/09 09:22:27;;;;;;;1.35;1.23;;;20.70;99.90;;;;;;5068506;28;20032;-69
2023/08/09 09:24:53;;;;;;;2.58;1.02;;;20.70;99.90;;;;;;5079942;28;20040;-69
2023/08/09 09:27:30;;;;;;;3.97;1.00;;;20.60;99.90;;;;;;5076562;28;20108;-69
2023/08/09 09:30:12;;;;;;;1.88;0.93;;;20.50;99.90;;;;;;5081103;28;20052;-69
2023/08/09 09:32:40;;;;;;;1.17;1.00;;;20.50;99.90;;;;;;5074947;28;20392;-69
2023/08/09 09:35:08;;;;;;;2.75;1.08;;;20.50;99.90;;;;;;5070065;28;20035;-69
2023/08/09 09:37:35;;;;;;;2.40;1.00;;;20.40;99.90;;;;;;5069491;28;20131;-69
2023/08/09 09:40:01;;;;;;;3.38;1.15;;;20.40;99.90;;;;;;5072561;28;20081;-69
2023/08/09 09:42:34;;;;;;;1.83;1.17;;;20.40;99.90;;;;;;5074623;28;20124;-69
2023/08/09 09:45:07;;;;;;;6.05;1.75;;;20.40;99.90;;;;;;5069965;28;20040;-69
2023/08/09 09:47:34;;;;;;;2.10;1.15;;;20.50;99.90;;;;;;5082933;28;20117;-69
2023/08/09 09:50:01;;;;;;;3.47;1.30;;;20.50;99.90;;;;;;5072080;28;20028;-70
2023/08/09 09:52:28;;;;;;;6.68;1.10;;;20.40;99.90;;;;;;5075890;28;20019;-72
2023/08/09 09:54:56;;;;;;;4.70;1.48;;;20.40;99.90;;;;;;5055116;28;20028;-72
2023/08/09 09:57:21;;;;;;;4.32;1.00;;;20.50;99.90;;;;;;5081023;28;20028;-72
2023/08/09 09:59:47;;;;;;;2.65;1.05;;;20.50;99.90;;;;;;5070604;28;20089;-72
2023/08/09 10:02:13;;;;;;;4.57;1.35;;;20.50;99.90;;;;;;5083545;28;20047;-73
2023/08/09 10:04:40;;;;;;;2.67;0.85;;;20.50;99.90;;;;;;5058199;28;23870;-73
2023/08/09 10:07:07;;;;;;;11.32;2.67;;;20.60;99.90;;;;;;5067616;28;20170;-73
2023/08/09 10:09:34;;;;;;;2.90;1.08;;;20.60;99.90;;;;;;5055416;28;20032;-74
2023/08/09 10:12:03;;;;;;;1.75;1.00;;;20.70;99.90;;;;;;5050122;28;20054;-73
2023/08/09 10:14:31;;;;;;;2.85;1.02;;;20.70;99.90;;;;;;5051788;28;20028;-74
2023/08/09 10:16:59;;;;;;;1.05;0.80;;;20.70;99.90;;;;;;5078076;28;20078;-74
2023/08/09 10:19:26;;;;;;;2.55;1.10;;;20.70;99.90;;;;;;5047998;28;21473;-74
2023/08/09 10:21:54;;;;;;;1.27;1.17;;;20.70;99.90;;;;;;5051607;28;20177;-75
2023/08/09 10:24:20;;;;;;;1.85;1.20;;;20.80;99.90;;;;;;5060398;28;20980;-72
2023/08/09 10:26:49;;;;;;;2.75;1.02;;;20.80;99.90;;;;;;5047551;28;20939;-72
2023/08/09 10:29:23;;;;;;;3.88;0.90;;;20.80;99.90;;;;;;5053257;28;20503;-74
2023/08/09 10:32:00;;;;;;;2.13;1.05;;;20.90;99.90;;;;;;5065364;28;20028;-73
2023/08/09 10:34:37;;;;;;;1.33;1.17;;;20.80;99.90;;;;;;5084055;28;20076;-75
2023/08/09 10:37:04;;;;;;;2.83;1.30;;;20.80;99.90;;;;;;5078074;28;20907;-73
2023/08/09 10:39:31;;;;;;;2.10;1.20;;;20.80;99.90;;;;;;5064325;28;20035;-74
2023/08/09 10:42:05;;;;;;;1.77;1.00;;;20.90;99.90;;;;;;5072632;28;20088;-74
2023/08/09 10:44:49;;;;;;;0.93;0.90;;;20.90;99.90;;;;;;5079206;28;20112;-76
2023/08/09 10:47:24;;;;;;;1.83;0.93;;;20.90;99.90;;;;;;5079513;28;20034;-75
2023/08/09 10:49:55;;;;;;;1.88;0.77;;;20.90;99.90;;;;;;5075890;28;20909;-75
2023/08/09 10:52:28;;;;;;;1.50;0.77;;;20.90;99.90;;;;;;5079973;28;20036;-73
2023/08/09 10:55:19;;;;;;;1.00;0.80;;;20.90;99.90;;;;;;5071098;28;20036;-73
2023/08/09 10:57:49;;;;;;;1.15;0.60;;;21.00;99.90;;;;;;5084911;28;20588;-69
2023/08/09 11:00:17;;;;;;;2.35;0.57;;;21.00;99.90;;;;;;5082766;28;20463;-70
2023/08/09 11:02:53;;;;;;;1.88;1.00;;;21.10;99.90;;;;;;5084773;28;21013;-70
2023/08/09 11:05:19;;;;;;;1.42;0.73;;;21.20;99.90;;;;;;5053180;28;20036;-69
2023/08/09 11:07:47;;;;;;;0.88;0.60;;;21.20;99.90;;;;;;5071037;28;20028;-70
2023/08/09 11:10:15;;;;;;;2.35;0.90;;;21.30;99.90;;;;;;5060781;28;20034;-70
2023/08/09 11:12:44;;;;;;;1.55;0.40;;;21.30;99.90;;;;;;5078885;28;20055;-70
2023/08/09 11:15:11;;;;;;;1.27;0.63;;;21.30;99.90;;;;;;5055364;28;21787;-69
2023/08/09 11:17:49;;;;;;;1.52;0.60;;;21.30;99.90;;;;;;5070976;28;20043;-70
2023/08/09 11:20:15;;;;;;;0.88;0.50;;;21.30;99.90;;;;;;5074875;28;20066;-70
2023/08/09 11:22:52;;;;;;;0.75;0.60;;;21.40;99.90;;;;;;5075351;28;20131;-70
2023/08/09 11:25:18;;;;;;;0.77;0.70;;;21.30;99.90;;;;;;5072369;28;20044;-71
2023/08/09 11:27:44;;;;;;;1.70;0.50;;;21.30;99.90;;;;;;5068337;28;20047;-74
2023/08/09 11:30:10;;;;;;;0.73;0.50;;;21.30;99.90;;;;;;5072150;28;20196;-73
2023/08/09 11:32:37;;;;;;;0.95;0.47;;;21.40;99.90;;;;;;5072282;28;20675;-72
2023/08/09 11:35:03;;;;;;;1.80;0.57;;;21.40;99.90;;;;;;5078643;28;20094;-72
2023/08/09 11:37:30;;;;;;;1.42;0.60;;;21.40;99.90;;;;;;5076762;28;20065;-71
2023/08/09 11:39:56;;;;;;;1.40;0.50;;;21.50;99.90;;;;;;5081066;28;20030;-74
2023/08/09 11:42:22;;;;;;;1.08;0.80;;;21.50;99.90;;;;;;5075612;28;20040;-74
2023/08/09 11:44:48;;;;;;;2.13;0.70;;;21.60;99.90;;;;;;5077411;28;20086;-74
2023/08/09 11:47:13;;;;;;;1.20;0.70;;;21.60;99.90;;;;;;5070794;27;20067;-74
2023/08/09 11:49:40;;;;;;;0.95;0.60;;;21.70;99.90;;;;;;5073075;28;20584;-74
2023/08/09 11:52:06;;;;;;;1.42;0.60;;;21.70;99.90;;;;;;5057848;28;20039;-74
2023/08/09 11:54:32;;;;;;;0.63;0.50;;;21.70;99.90;;;;;;5081380;28;20062;-73
2023/08/09 11:57:00;;;;;;;1.55;0.90;;;21.80;99.90;;;;;;5075885;28;21458;-72
2023/08/09 11:59:26;;;;;;;2.30;0.68;;;21.80;99.90;;;;;;5076800;28;20463;-73
2023/08/09 12:01:55;;;;;;;3.22;0.77;;;21.80;99.90;;;;;;5071275;28;20032;-73
2023/08/09 12:04:23;;;;;;;38.08;6.10;;;21.80;99.90;;;;;;5080854;28;20648;-72
2023/08/09 12:06:51;;;;;;;5.65;1.27;;;21.70;99.90;;;;;;5044355;28;20037;-72
2023/08/09 12:09:32;;;;;;;3.85;0.77;;;21.70;99.90;;;;;;5070148;28;20071;-72
2023/08/09 12:12:03;;;;;;;1.45;0.60;;;21.70;99.90;;;;;;5082445;28;20081;-72
2023/08/09 12:14:29;;;;;;;0.73;0.57;;;21.60;99.90;;;;;;5065706;28;20024;-71
2023/08/09 12:16:55;;;;;;;0.50;0.40;;;21.60;99.90;;;;;;5078976;28;20042;-71
2023/08/09 12:19:21;;;;;;;11.00;2.70;;;21.60;99.90;;;;;;5062457;28;20075;-71
2023/08/09 12:21:46;;;;;;;1.58;0.40;;;21.50;99.90;;;;;;5072290;28;20575;-72
2023/08/09 12:24:13;;;;;;;6.22;0.85;;;21.50;99.90;;;;;;5082058;28;20038;-72
2023/08/09 12:26:39;;;;;;;0.73;0.50;;;21.50;99.90;;;;;;5077214;28;21145;-72
2023/08/09 12:29:04;;;;;;;3.95;0.50;;;21.50;99.90;;;;;;5077637;28;20051;-71
2023/08/09 12:31:30;;;;;;;1.88;0.70;;;21.50;99.90;;;;;;5060645;28;20055;-71
2023/08/09 12:33:56;;;;;;;1.30;0.68;;;21.40;99.90;;;;;;5066548;28;20031;-72
2023/08/09 12:36:21;;;;;;;1.25;0.63;;;21.40;99.90;;;;;;5073970;28;20114;-72
2023/08/09 12:38:47;;;;;;;1.30;0.52;;;21.30;99.90;;;;;;5080365;28;20052;-72
2023/08/09 12:41:13;;;;;;;1.30;0.65;;;21.30;99.90;;;;;;5077496;28;20044;-72
2023/08/09 12:43:39;;;;;;;2.40;0.95;;;21.30;99.90;;;;;;5076514;28;20031;-72
2023/08/09 12:46:05;;;;;;;1.70;0.50;;;21.20;99.90;;;;;;5071546;28;20082;-71
2023/08/09 12:48:30;;;;;;;4.03;0.70;;;21.20;99.90;;;;;;5071126;28;20101;-72